Terminal Aerodrome Forecast
Issued by NWS

Home | Current Version | Previous Version | Text Only | Print | Product List | Glossary On
Versions: 1 2 3 4 5 6 7 8 9 10 11 12 13 14 15 16 17 18
152
FTUS42 KMLB 031207 AAA
TAFFPR
TAF AMD
KFPR 031207Z 0312/0412 20003KT P6SM FEW100 SCT250
     FM031400 22009KT P6SM SCT030
     FM032100 20007KT P6SM VCTS BKN035CB
      TEMPO 0321/0324 3SM TSRA BKN020CB
     FM040200 22007KT P6SM SCT050 BKN150=

USA.gov is the U.S. government's official web portal to all federal, state and local government web resources and services.